sensor_id;sensor_type;location;lat;lon;timestamp;pressure;altitude;pressure_sealevel;temperature;humidity
11806;BME280;5960;42.602;23.482;2022-07-23T00:01:56;93727.19;;;24.51;45.71
11806;BME280;5960;42.602;23.482;2022-07-23T00:04:23;93725.84;;;24.43;46.14
11806;BME280;5960;42.602;23.482;2022-07-23T00:06:50;93733.91;;;24.43;46.31
11806;BME280;5960;42.602;23.482;2022-07-23T00:09:16;93731.78;;;24.50;45.80
11806;BME280;5960;42.602;23.482;2022-07-23T00:11:44;93735.53;;;24.54;45.41
11806;BME280;5960;42.602;23.482;2022-07-23T00:14:11;93737.69;;;24.42;46.07
11806;BME280;5960;42.602;23.482;2022-07-23T00:16:38;93740.13;;;24.38;46.60
11806;BME280;5960;42.602;23.482;2022-07-23T00:19:05;93737.94;;;24.30;46.71
11806;BME280;5960;42.602;23.482;2022-07-23T00:21:32;93738.22;;;24.33;46.40
11806;BME280;5960;42.602;23.482;2022-07-23T00:23:58;93731.22;;;24.38;46.41
11806;BME280;5960;42.602;23.482;2022-07-23T00:26:25;93735.00;;;24.42;45.96
11806;BME280;5960;42.602;23.482;2022-07-23T00:28:53;93740.91;;;24.39;46.28
11806;BME280;5960;42.602;23.482;2022-07-23T00:31:20;93729.06;;;24.29;46.00
11806;BME280;5960;42.602;23.482;2022-07-23T00:33:46;93733.91;;;24.32;46.05
11806;BME280;5960;42.602;23.482;2022-07-23T00:36:13;93736.06;;;24.25;46.70
11806;BME280;5960;42.602;23.482;2022-07-23T00:38:40;93735.53;;;24.23;47.01
11806;BME280;5960;42.602;23.482;2022-07-23T00:41:07;93740.34;;;24.16;47.06
11806;BME280;5960;42.602;23.482;2022-07-23T00:43:34;93739.25;;;24.07;47.51
11806;BME280;5960;42.602;23.482;2022-07-23T00:46:03;93733.34;;;24.10;47.30
11806;BME280;5960;42.602;23.482;2022-07-23T00:48:30;93734.72;;;24.12;47.08
11806;BME280;5960;42.602;23.482;2022-07-23T00:50:57;93725.53;;;24.08;46.70
11806;BME280;5960;42.602;23.482;2022-07-23T00:53:24;93727.66;;;24.01;46.90
11806;BME280;5960;42.602;23.482;2022-07-23T00:55:51;93724.94;;;23.91;46.71
11806;BME280;5960;42.602;23.482;2022-07-23T00:58:19;93728.97;;;23.83;47.29
11806;BME280;5960;42.602;23.482;2022-07-23T01:00:46;93729.22;;;23.81;47.82
11806;BME280;5960;42.602;23.482;2022-07-23T01:03:14;93727.59;;;23.80;47.47
11806;BME280;5960;42.602;23.482;2022-07-23T01:05:41;93716.03;;;23.74;48.18
11806;BME280;5960;42.602;23.482;2022-07-23T01:08:07;93728.38;;;23.70;48.20
11806;BME280;5960;42.602;23.482;2022-07-23T01:10:34;93721.34;;;23.64;48.24
11806;BME280;5960;42.602;23.482;2022-07-23T01:13:03;93726.69;;;23.49;48.47
11806;BME280;5960;42.602;23.482;2022-07-23T01:15:31;93725.59;;;23.44;48.67
11806;BME280;5960;42.602;23.482;2022-07-23T01:17:58;93724.78;;;23.39;48.90
11806;BME280;5960;42.602;23.482;2022-07-23T01:20:26;93725.03;;;23.42;48.25
11806;BME280;5960;42.602;23.482;2022-07-23T01:22:55;93720.53;;;23.48;48.58
11806;BME280;5960;42.602;23.482;2022-07-23T01:25:22;93717.28;;;23.46;48.16
11806;BME280;5960;42.602;23.482;2022-07-23T01:27:51;93718.91;;;23.52;48.26
11806;BME280;5960;42.602;23.482;2022-07-23T01:30:18;93719.72;;;23.53;48.21
11806;BME280;5960;42.602;23.482;2022-07-23T01:32:45;93712.44;;;23.53;48.30
11806;BME280;5960;42.602;23.482;2022-07-23T01:35:12;93715.44;;;23.57;47.71
11806;BME280;5960;42.602;23.482;2022-07-23T01:37:39;93717.84;;;23.58;47.98
11806;BME280;5960;42.602;23.482;2022-07-23T01:40:07;93708.69;;;23.54;47.92
11806;BME280;5960;42.602;23.482;2022-07-23T01:42:34;93709.22;;;23.51;48.46
11806;BME280;5960;42.602;23.482;2022-07-23T01:45:02;93709.53;;;23.60;48.43
11806;BME280;5960;42.602;23.482;2022-07-23T01:47:29;93710.31;;;23.61;48.02
11806;BME280;5960;42.602;23.482;2022-07-23T01:49:56;93714.34;;;23.53;48.22
11806;BME280;5960;42.602;23.482;2022-07-23T01:52:23;93715.44;;;23.67;47.91
11806;BME280;5960;42.602;23.482;2022-07-23T01:54:49;93718.38;;;23.55;48.31
11806;BME280;5960;42.602;23.482;2022-07-23T01:57:17;93715.94;;;23.49;48.98
11806;BME280;5960;42.602;23.482;2022-07-23T01:59:44;93712.44;;;23.53;48.80
11806;BME280;5960;42.602;23.482;2022-07-23T02:02:11;93714.06;;;23.54;47.88
11806;BME280;5960;42.602;23.482;2022-07-23T02:04:37;93716.47;;;23.51;48.37
11806;BME280;5960;42.602;23.482;2022-07-23T02:07:05;93718.34;;;23.50;48.52
11806;BME280;5960;42.602;23.482;2022-07-23T02:09:31;93715.13;;;23.43;49.35
11806;BME280;5960;42.602;23.482;2022-07-23T02:11:58;93712.69;;;23.36;49.09
11806;BME280;5960;42.602;23.482;2022-07-23T02:14:27;93715.38;;;23.36;49.48
11806;BME280;5960;42.602;23.482;2022-07-23T02:16:54;93721.00;;;23.40;49.71
11806;BME280;5960;42.602;23.482;2022-07-23T02:19:20;93718.28;;;23.24;49.77
11806;BME280;5960;42.602;23.482;2022-07-23T02:21:47;93719.34;;;23.28;49.64
11806;BME280;5960;42.602;23.482;2022-07-23T02:24:14;93725.53;;;23.29;49.34
11806;BME280;5960;42.602;23.482;2022-07-23T02:26:41;93723.31;;;23.21;50.19
11806;BME280;5960;42.602;23.482;2022-07-23T02:29:08;93723.31;;;23.21;49.63
11806;BME280;5960;42.602;23.482;2022-07-23T02:31:36;93720.34;;;23.17;50.37
11806;BME280;5960;42.602;23.482;2022-07-23T02:34:03;93720.63;;;23.21;49.72
11806;BME280;5960;42.602;23.482;2022-07-23T02:36:30;93724.59;;;23.08;49.82
11806;BME280;5960;42.602;23.482;2022-07-23T02:38:57;93723.16;;;22.90;50.62
11806;BME280;5960;42.602;23.482;2022-07-23T02:41:23;93726.09;;;22.88;50.14
11806;BME280;5960;42.602;23.482;2022-07-23T02:43:50;93723.34;;;22.83;50.77
11806;BME280;5960;42.602;23.482;2022-07-23T02:46:17;93724.69;;;22.80;50.71
11806;BME280;5960;42.602;23.482;2022-07-23T02:48:45;93725.25;;;22.82;51.01
11806;BME280;5960;42.602;23.482;2022-07-23T02:51:12;93719.56;;;22.74;51.19
11806;BME280;5960;42.602;23.482;2022-07-23T02:53:38;93731.41;;;22.78;51.51
11806;BME280;5960;42.602;23.482;2022-07-23T02:56:05;93731.38;;;22.73;51.57
11806;BME280;5960;42.602;23.482;2022-07-23T02:58:32;93739.09;;;22.69;51.32
11806;BME280;5960;42.602;23.482;2022-07-23T03:00:59;93740.22;;;22.73;51.24
11806;BME280;5960;42.602;23.482;2022-07-23T03:03:26;93741.84;;;22.74;50.62
11806;BME280;5960;42.602;23.482;2022-07-23T03:05:54;93744.25;;;22.71;50.66
11806;BME280;5960;42.602;23.482;2022-07-23T03:08:21;93737.72;;;22.61;51.79
11806;BME280;5960;42.602;23.482;2022-07-23T03:10:48;93736.78;;;22.45;51.67
11806;BME280;5960;42.602;23.482;2022-07-23T03:13:15;93747.88;;;22.54;51.39
11806;BME280;5960;42.602;23.482;2022-07-23T03:15:42;93744.38;;;22.53;51.62
11806;BME280;5960;42.602;23.482;2022-07-23T03:18:08;93745.75;;;22.56;51.77
11806;BME280;5960;42.602;23.482;2022-07-23T03:20:35;93751.88;;;22.51;51.96
11806;BME280;5960;42.602;23.482;2022-07-23T03:23:03;93749.69;;;22.48;51.54
11806;BME280;5960;42.602;23.482;2022-07-23T03:25:30;93744.09;;;22.50;52.13
11806;BME280;5960;42.602;23.482;2022-07-23T03:27:57;93751.06;;;22.51;52.50
11806;BME280;5960;42.602;23.482;2022-07-23T03:30:24;93755.13;;;22.53;52.53
11806;BME280;5960;42.602;23.482;2022-07-23T03:32:51;93755.16;;;22.59;51.66
11806;BME280;5960;42.602;23.482;2022-07-23T03:35:18;93752.22;;;22.60;52.09
11806;BME280;5960;42.602;23.482;2022-07-23T03:37:45;93758.34;;;22.56;52.18
11806;BME280;5960;42.602;23.482;2022-07-23T03:40:13;93759.94;;;22.51;52.03
11806;BME280;5960;42.602;23.482;2022-07-23T03:42:39;93756.41;;;22.46;52.05
11806;BME280;5960;42.602;23.482;2022-07-23T03:45:08;93756.06;;;22.42;52.38
11806;BME280;5960;42.602;23.482;2022-07-23T03:47:35;93753.22;;;22.49;52.38
11806;BME280;5960;42.602;23.482;2022-07-23T03:50:02;93751.38;;;22.54;52.14
11806;BME280;5960;42.602;23.482;2022-07-23T03:52:29;93752.22;;;22.60;51.96
11806;BME280;5960;42.602;23.482;2022-07-23T03:54:56;93750.44;;;22.76;52.74
11806;BME280;5960;42.602;23.482;2022-07-23T03:57:24;93754.56;;;22.89;52.17
11806;BME280;5960;42.602;23.482;2022-07-23T03:59:51;93760.31;;;23.03;51.48
11806;BME280;5960;42.602;23.482;2022-07-23T04:02:18;93763.31;;;23.12;51.40
11806;BME280;5960;42.602;23.482;2022-07-23T04:04:44;93761.44;;;23.18;51.67
11806;BME280;5960;42.602;23.482;2022-07-23T04:07:12;93771.69;;;23.21;51.51
11806;BME280;5960;42.602;23.482;2022-07-23T04:09:38;93766.41;;;23.31;51.30
11806;BME280;5960;42.602;23.482;2022-07-23T04:12:06;93769.66;;;23.33;51.19
11806;BME280;5960;42.602;23.482;2022-07-23T04:14:34;93763.72;;;23.31;51.19
11806;BME280;5960;42.602;23.482;2022-07-23T04:17:01;93762.06;;;23.25;51.38
11806;BME280;5960;42.602;23.482;2022-07-23T04:19:28;93765.81;;;23.24;51.14
11806;BME280;5960;42.602;23.482;2022-07-23T04:21:55;93765.03;;;23.28;51.69
11806;BME280;5960;42.602;23.482;2022-07-23T04:24:23;93764.25;;;23.28;50.89
11806;BME280;5960;42.602;23.482;2022-07-23T04:26:49;93762.66;;;23.32;51.35
11806;BME280;5960;42.602;23.482;2022-07-23T04:29:16;93767.50;;;23.35;51.44
11806;BME280;5960;42.602;23.482;2022-07-23T04:31:44;93771.81;;;23.36;51.22
11806;BME280;5960;42.602;23.482;2022-07-23T04:34:11;93774.78;;;23.40;51.26
11806;BME280;5960;42.602;23.482;2022-07-23T04:36:37;93775.66;;;23.51;51.20
11806;BME280;5960;42.602;23.482;2022-07-23T04:39:04;93781.59;;;23.58;51.14
11806;BME280;5960;42.602;23.482;2022-07-23T04:41:31;93777.88;;;23.69;50.55
11806;BME280;5960;42.602;23.482;2022-07-23T04:43:58;93783.00;;;23.76;50.43
11806;BME280;5960;42.602;23.482;2022-07-23T04:46:25;93780.06;;;23.78;49.81
11806;BME280;5960;42.602;23.482;2022-07-23T04:48:53;93785.75;;;23.86;49.69
11806;BME280;5960;42.602;23.482;2022-07-23T04:51:19;93788.53;;;24.07;49.24
11806;BME280;5960;42.602;23.482;2022-07-23T04:53:46;93783.69;;;24.09;49.59
11806;BME280;5960;42.602;23.482;2022-07-23T04:56:13;93788.28;;;24.19;48.88
11806;BME280;5960;42.602;23.482;2022-07-23T04:58:40;93789.91;;;24.30;47.41
11806;BME280;5960;42.602;23.482;2022-07-23T05:01:07;93789.13;;;24.40;47.18
11806;BME280;5960;42.602;23.482;2022-07-23T05:03:34;93785.09;;;24.53;46.93
11806;BME280;5960;42.602;23.482;2022-07-23T05:06:02;93777.00;;;24.53;46.95
11806;BME280;5960;42.602;23.482;2022-07-23T05:08:29;93777.03;;;24.69;47.33
11806;BME280;5960;42.602;23.482;2022-07-23T05:10:56;93779.19;;;24.82;47.26
11806;BME280;5960;42.602;23.482;2022-07-23T05:13:22;93783.22;;;25.00;46.64
11806;BME280;5960;42.602;23.482;2022-07-23T05:15:49;93789.41;;;25.21;47.41
11806;BME280;5960;42.602;23.482;2022-07-23T05:18:16;93796.38;;;25.38;47.76
11806;BME280;5960;42.602;23.482;2022-07-23T05:20:43;93785.06;;;25.46;47.42
11806;BME280;5960;42.602;23.482;2022-07-23T05:23:12;93795.00;;;25.56;47.39
11806;BME280;5960;42.602;23.482;2022-07-23T05:25:40;93795.22;;;25.70;47.59
11806;BME280;5960;42.602;23.482;2022-07-23T05:28:07;93797.88;;;25.86;47.42
11806;BME280;5960;42.602;23.482;2022-07-23T05:30:33;93804.28;;;26.00;47.74
11806;BME280;5960;42.602;23.482;2022-07-23T05:33:00;93806.16;;;26.15;47.34
11806;BME280;5960;42.602;23.482;2022-07-23T05:35:27;93802.25;;;26.32;47.13
11806;BME280;5960;42.602;23.482;2022-07-23T05:37:54;93801.13;;;26.43;47.61
11806;BME280;5960;42.602;23.482;2022-07-23T05:40:22;93801.88;;;26.54;47.11
11806;BME280;5960;42.602;23.482;2022-07-23T05:42:49;93801.00;;;26.58;47.04
11806;BME280;5960;42.602;23.482;2022-07-23T05:45:16;93804.47;;;26.64;45.76
11806;BME280;5960;42.602;23.482;2022-07-23T05:47:44;93796.84;;;26.77;44.28
11806;BME280;5960;42.602;23.482;2022-07-23T05:50:12;93795.72;;;26.83;44.82
11806;BME280;5960;42.602;23.482;2022-07-23T05:52:39;93794.63;;;26.84;44.86
11806;BME280;5960;42.602;23.482;2022-07-23T05:55:06;93802.13;;;26.92;44.87
11806;BME280;5960;42.602;23.482;2022-07-23T05:57:35;93805.00;;;27.06;45.03
11806;BME280;5960;42.602;23.482;2022-07-23T06:00:03;93798.13;;;27.19;45.88
11806;BME280;5960;42.602;23.482;2022-07-23T06:02:30;93808.78;;;27.34;45.50
11806;BME280;5960;42.602;23.482;2022-07-23T06:04:57;93805.44;;;27.48;44.61
11806;BME280;5960;42.602;23.482;2022-07-23T06:07:24;93816.09;;;27.63;43.73
11806;BME280;5960;42.602;23.482;2022-07-23T06:09:51;93812.81;;;27.67;43.63
11806;BME280;5960;42.602;23.482;2022-07-23T06:12:18;93811.59;;;27.78;43.62
11806;BME280;5960;42.602;23.482;2022-07-23T06:14:46;93810.63;;;27.93;42.85
11806;BME280;5960;42.602;23.482;2022-07-23T06:17:15;93812.41;;;28.03;43.21
11806;BME280;5960;42.602;23.482;2022-07-23T06:19:42;93801.69;;;28.17;43.40
11806;BME280;5960;42.602;23.482;2022-07-23T06:22:09;93803.84;;;28.39;42.09
11806;BME280;5960;42.602;23.482;2022-07-23T06:24:36;93802.28;;;28.33;42.53
11806;BME280;5960;42.602;23.482;2022-07-23T06:27:03;93799.22;;;28.40;42.86
11806;BME280;5960;42.602;23.482;2022-07-23T06:29:30;93806.84;;;28.57;42.82
11806;BME280;5960;42.602;23.482;2022-07-23T06:31:58;93803.47;;;28.65;42.46
11806;BME280;5960;42.602;23.482;2022-07-23T06:34:25;93801.16;;;28.72;41.62
11806;BME280;5960;42.602;23.482;2022-07-23T06:36:51;93799.72;;;28.80;42.06
11806;BME280;5960;42.602;23.482;2022-07-23T06:39:18;93799.25;;;28.92;41.62
11806;BME280;5960;42.602;23.482;2022-07-23T06:41:45;93801.66;;;29.12;41.43
11806;BME280;5960;42.602;23.482;2022-07-23T06:44:12;93807.09;;;29.12;41.21
11806;BME280;5960;42.602;23.482;2022-07-23T06:46:38;93808.59;;;29.19;41.48
11806;BME280;5960;42.602;23.482;2022-07-23T06:49:07;93806.81;;;29.28;41.31
11806;BME280;5960;42.602;23.482;2022-07-23T06:51:33;93809.88;;;29.40;40.89
11806;BME280;5960;42.602;23.482;2022-07-23T06:54:00;93801.16;;;29.57;41.27
11806;BME280;5960;42.602;23.482;2022-07-23T06:56:27;93809.00;;;29.73;40.96
11806;BME280;5960;42.602;23.482;2022-07-23T06:58:54;93806.59;;;29.85;40.71
11806;BME280;5960;42.602;23.482;2022-07-23T07:01:21;93801.97;;;30.00;40.18
11806;BME280;5960;42.602;23.482;2022-07-23T07:03:47;93803.91;;;29.99;40.59
11806;BME280;5960;42.602;23.482;2022-07-23T07:06:15;93801.56;;;30.07;40.32
11806;BME280;5960;42.602;23.482;2022-07-23T07:08:43;93793.22;;;30.17;40.08
11806;BME280;5960;42.602;23.482;2022-07-23T07:11:09;93798.53;;;29.94;39.57
11806;BME280;5960;42.602;23.482;2022-07-23T07:13:38;93794.13;;;30.12;40.36
11806;BME280;5960;42.602;23.482;2022-07-23T07:16:05;93789.03;;;30.33;40.10
11806;BME280;5960;42.602;23.482;2022-07-23T07:18:32;93791.03;;;30.56;39.94
11806;BME280;5960;42.602;23.482;2022-07-23T07:20:58;93786.34;;;30.70;39.82
11806;BME280;5960;42.602;23.482;2022-07-23T07:23:26;93779.13;;;30.88;38.21
11806;BME280;5960;42.602;23.482;2022-07-23T07:25:53;93783.41;;;31.03;39.89
11806;BME280;5960;42.602;23.482;2022-07-23T07:28:20;93787.69;;;31.18;39.38
11806;BME280;5960;42.602;23.482;2022-07-23T07:30:46;93782.44;;;31.31;39.66
11806;BME280;5960;42.602;23.482;2022-07-23T07:33:13;93784.75;;;31.46;39.38
11806;BME280;5960;42.602;23.482;2022-07-23T07:35:40;93783.88;;;31.60;38.71
11806;BME280;5960;42.602;23.482;2022-07-23T07:38:07;93774.19;;;31.76;38.28
11806;BME280;5960;42.602;23.482;2022-07-23T07:40:35;93772.63;;;31.93;37.94
11806;BME280;5960;42.602;23.482;2022-07-23T07:43:02;93776.06;;;32.07;37.63
11806;BME280;5960;42.602;23.482;2022-07-23T07:45:29;93778.47;;;32.18;37.73
11806;BME280;5960;42.602;23.482;2022-07-23T07:47:56;93778.34;;;32.32;36.62
11806;BME280;5960;42.602;23.482;2022-07-23T07:50:24;93784.00;;;32.35;36.54
11806;BME280;5960;42.602;23.482;2022-07-23T07:52:50;93771.78;;;32.41;36.77
11806;BME280;5960;42.602;23.482;2022-07-23T07:55:17;93781.75;;;32.55;36.90
11806;BME280;5960;42.602;23.482;2022-07-23T07:57:45;93775.66;;;32.67;37.02
11806;BME280;5960;42.602;23.482;2022-07-23T08:00:12;93776.28;;;32.81;35.79
11806;BME280;5960;42.602;23.482;2022-07-23T08:02:41;93775.66;;;32.93;34.69
11806;BME280;5960;42.602;23.482;2022-07-23T08:05:08;93777.56;;;33.10;32.58
11806;BME280;5960;42.602;23.482;2022-07-23T08:07:35;93770.66;;;33.13;29.99
11806;BME280;5960;42.602;23.482;2022-07-23T08:10:05;93773.22;;;33.18;31.24
11806;BME280;5960;42.602;23.482;2022-07-23T08:12:38;93774.00;;;33.19;31.06
11806;BME280;5960;42.602;23.482;2022-07-23T08:15:08;93771.91;;;33.33;30.99
11806;BME280;5960;42.602;23.482;2022-07-23T08:17:35;93776.88;;;33.40;33.06
11806;BME280;5960;42.602;23.482;2022-07-23T08:20:02;93768.34;;;33.50;32.32
11806;BME280;5960;42.602;23.482;2022-07-23T08:22:42;93764.81;;;33.50;32.78
11806;BME280;5960;42.602;23.482;2022-07-23T08:25:09;93761.84;;;33.64;32.92
11806;BME280;5960;42.602;23.482;2022-07-23T08:27:36;93761.56;;;33.56;33.85
11806;BME280;5960;42.602;23.482;2022-07-23T08:30:04;93761.69;;;33.69;33.64
11806;BME280;5960;42.602;23.482;2022-07-23T08:32:32;93769.31;;;33.84;33.32
11806;BME280;5960;42.602;23.482;2022-07-23T08:34:59;93769.44;;;33.97;31.84
11806;BME280;5960;42.602;23.482;2022-07-23T08:37:26;93770.06;;;34.02;30.97
11806;BME280;5960;42.602;23.482;2022-07-23T08:39:52;93770.00;;;34.11;31.67
11806;BME280;5960;42.602;23.482;2022-07-23T08:42:21;93773.63;;;34.24;30.90
11806;BME280;5960;42.602;23.482;2022-07-23T08:44:48;93766.50;;;34.32;30.98
11806;BME280;5960;42.602;23.482;2022-07-23T08:47:15;93771.28;;;34.44;30.30
11806;BME280;5960;42.602;23.482;2022-07-23T08:49:43;93770.28;;;34.48;29.81
11806;BME280;5960;42.602;23.482;2022-07-23T08:52:11;93768.41;;;34.61;29.68
11806;BME280;5960;42.602;23.482;2022-07-23T08:54:38;93766.59;;;34.65;28.88
11806;BME280;5960;42.602;23.482;2022-07-23T08:57:05;93770.47;;;34.64;27.98
11806;BME280;5960;42.602;23.482;2022-07-23T08:59:32;93766.56;;;34.53;28.63
11806;BME280;5960;42.602;23.482;2022-07-23T09:01:59;93759.72;;;34.59;29.13
11806;BME280;5960;42.602;23.482;2022-07-23T09:04:26;93770.00;;;34.62;29.58
11806;BME280;5960;42.602;23.482;2022-07-23T09:06:54;93764.38;;;34.80;29.02
11806;BME280;5960;42.602;23.482;2022-07-23T09:09:21;93768.47;;;34.95;29.17
11806;BME280;5960;42.602;23.482;2022-07-23T09:12:02;93763.06;;;35.07;28.05
11806;BME280;5960;42.602;23.482;2022-07-23T09:14:36;93765.56;;;35.13;27.94
11806;BME280;5960;42.602;23.482;2022-07-23T09:17:09;93760.59;;;35.27;27.88
11806;BME280;5960;42.602;23.482;2022-07-23T09:19:35;93761.06;;;35.42;27.59
11806;BME280;5960;42.602;23.482;2022-07-23T09:22:21;93759.75;;;35.48;26.30
11806;BME280;5960;42.602;23.482;2022-07-23T09:25:05;93758.59;;;35.49;26.48
11806;BME280;5960;42.602;23.482;2022-07-23T09:27:48;93757.25;;;35.67;26.62
11806;BME280;5960;42.602;23.482;2022-07-23T09:30:15;93754.88;;;35.91;26.55
11806;BME280;5960;42.602;23.482;2022-07-23T09:32:42;93754.31;;;36.10;25.77
11806;BME280;5960;42.602;23.482;2022-07-23T09:35:09;93756.59;;;36.20;24.90
11806;BME280;5960;42.602;23.482;2022-07-23T09:37:37;93753.81;;;35.83;26.14
11806;BME280;5960;42.602;23.482;2022-07-23T09:40:06;93750.28;;;35.82;26.08
11806;BME280;5960;42.602;23.482;2022-07-23T09:42:34;93745.16;;;36.06;26.10
11806;BME280;5960;42.602;23.482;2022-07-23T09:45:01;93746.72;;;36.32;25.73
11806;BME280;5960;42.602;23.482;2022-07-23T09:47:30;93741.03;;;36.49;25.44
11806;BME280;5960;42.602;23.482;2022-07-23T09:50:01;93746.09;;;36.63;24.73
11806;BME280;5960;42.602;23.482;2022-07-23T09:52:32;93740.38;;;36.68;25.13
11806;BME280;5960;42.602;23.482;2022-07-23T09:55:02;93737.53;;;36.93;25.20
11806;BME280;5960;42.602;23.482;2022-07-23T09:57:31;93739.81;;;37.19;24.30
11806;BME280;5960;42.602;23.482;2022-07-23T10:00:01;93739.94;;;37.23;23.73
11806;BME280;5960;42.602;23.482;2022-07-23T10:02:31;93734.16;;;37.12;24.50
11806;BME280;5960;42.602;23.482;2022-07-23T10:04:59;93734.72;;;37.34;24.37
11806;BME280;5960;42.602;23.482;2022-07-23T10:07:27;93729.59;;;37.48;23.96
11806;BME280;5960;42.602;23.482;2022-07-23T10:10:01;93725.47;;;37.10;24.50
11806;BME280;5960;42.602;23.482;2022-07-23T10:12:28;93724.75;;;36.85;25.39
11806;BME280;5960;42.602;23.482;2022-07-23T10:15:16;93720.97;;;37.18;25.98
11806;BME280;5960;42.602;23.482;2022-07-23T10:17:43;93718.81;;;37.56;24.05
11806;BME280;5960;42.602;23.482;2022-07-23T10:20:10;93715.66;;;37.89;22.85
11806;BME280;5960;42.602;23.482;2022-07-23T10:22:38;93717.09;;;37.99;22.45
11806;BME280;5960;42.602;23.482;2022-07-23T10:25:18;93711.19;;;38.17;22.86
11806;BME280;5960;42.602;23.482;2022-07-23T10:28:06;93706.81;;;38.32;21.46
11806;BME280;5960;42.602;23.482;2022-07-23T10:30:41;93712.31;;;38.32;21.45
11806;BME280;5960;42.602;23.482;2022-07-23T10:33:17;93699.25;;;38.45;22.11
11806;BME280;5960;42.602;23.482;2022-07-23T10:35:54;93698.25;;;38.53;21.96
11806;BME280;5960;42.602;23.482;2022-07-23T10:38:25;93706.13;;;38.55;21.72
11806;BME280;5960;42.602;23.482;2022-07-23T10:40:57;93699.97;;;38.61;21.28
11806;BME280;5960;42.602;23.482;2022-07-23T10:43:24;93704.47;;;38.89;21.85
11806;BME280;5960;42.602;23.482;2022-07-23T10:45:51;93702.91;;;39.31;21.49
11806;BME280;5960;42.602;23.482;2022-07-23T10:48:20;93690.97;;;39.70;21.15
11806;BME280;5960;42.602;23.482;2022-07-23T10:51:06;93694.50;;;39.94;21.41
11806;BME280;5960;42.602;23.482;2022-07-23T10:53:55;93689.22;;;40.12;21.49
11806;BME280;5960;42.602;23.482;2022-07-23T11:02:38;93682.03;;;40.61;19.41
11806;BME280;5960;42.602;23.482;2022-07-23T11:05:06;93678.41;;;40.57;19.55
11806;BME280;5960;42.602;23.482;2022-07-23T11:07:35;93670.31;;;40.71;19.46
11806;BME280;5960;42.602;23.482;2022-07-23T11:10:02;93658.97;;;40.80;19.26
11806;BME280;5960;42.602;23.482;2022-07-23T11:12:34;93668.66;;;41.01;18.89
11806;BME280;5960;42.602;23.482;2022-07-23T11:15:05;93660.84;;;41.06;18.70
11806;BME280;5960;42.602;23.482;2022-07-23T11:17:34;93657.06;;;41.22;19.35
11806;BME280;5960;42.602;23.482;2022-07-23T11:20:18;93661.63;;;41.48;19.24
11806;BME280;5960;42.602;23.482;2022-07-23T11:22:49;93663.03;;;41.73;20.10
11806;BME280;5960;42.602;23.482;2022-07-23T11:25:31;93658.41;;;41.88;19.46
11806;BME280;5960;42.602;23.482;2022-07-23T11:28:14;93665.56;;;41.96;18.93
11806;BME280;5960;42.602;23.482;2022-07-23T11:30:44;93658.09;;;41.97;17.60
11806;BME280;5960;42.602;23.482;2022-07-23T11:33:21;93649.19;;;41.73;17.56
11806;BME280;5960;42.602;23.482;2022-07-23T11:35:59;93654.06;;;41.94;18.07
11806;BME280;5960;42.602;23.482;2022-07-23T11:38:27;93649.69;;;41.89;14.79
11806;BME280;5960;42.602;23.482;2022-07-23T11:40:56;93643.81;;;41.46;14.76
11806;BME280;5960;42.602;23.482;2022-07-23T11:43:24;93642.81;;;41.20;14.77
11806;BME280;5960;42.602;23.482;2022-07-23T11:45:54;93640.03;;;41.16;14.22
11806;BME280;5960;42.602;23.482;2022-07-23T11:48:24;93641.72;;;41.28;15.19
11806;BME280;5960;42.602;23.482;2022-07-23T11:50:52;93638.53;;;41.26;14.96
11806;BME280;5960;42.602;23.482;2022-07-23T11:53:22;93640.81;;;41.62;16.49
11806;BME280;5960;42.602;23.482;2022-07-23T11:55:49;93635.19;;;42.03;17.39
11806;BME280;5960;42.602;23.482;2022-07-23T11:58:15;93630.44;;;42.04;16.23
11806;BME280;5960;42.602;23.482;2022-07-23T12:00:42;93629.75;;;42.21;15.90
11806;BME280;5960;42.602;23.482;2022-07-23T12:03:10;93623.91;;;42.41;16.61
11806;BME280;5960;42.602;23.482;2022-07-23T12:05:38;93623.59;;;42.57;16.87
11806;BME280;5960;42.602;23.482;2022-07-23T12:08:06;93622.81;;;42.67;14.81
11806;BME280;5960;42.602;23.482;2022-07-23T12:10:35;93625.25;;;42.87;15.38
11806;BME280;5960;42.602;23.482;2022-07-23T12:13:04;93625.31;;;43.05;15.33
11806;BME280;5960;42.602;23.482;2022-07-23T12:15:33;93615.00;;;43.09;15.60
11806;BME280;5960;42.602;23.482;2022-07-23T12:18:03;93608.28;;;43.21;15.70
11806;BME280;5960;42.602;23.482;2022-07-23T12:20:33;93611.88;;;43.33;14.29
11806;BME280;5960;42.602;23.482;2022-07-23T12:23:03;93618.19;;;43.19;13.99
11806;BME280;5960;42.602;23.482;2022-07-23T12:25:33;93611.06;;;43.10;14.03
11806;BME280;5960;42.602;23.482;2022-07-23T12:28:04;93611.84;;;43.18;13.92
11806;BME280;5960;42.602;23.482;2022-07-23T12:30:34;93607.47;;;42.92;13.18
11806;BME280;5960;42.602;23.482;2022-07-23T12:33:04;93605.41;;;42.70;13.51
11806;BME280;5960;42.602;23.482;2022-07-23T12:35:38;93597.13;;;41.89;14.54
11806;BME280;5960;42.602;23.482;2022-07-23T12:38:07;93595.19;;;40.96;14.64
11806;BME280;5960;42.602;23.482;2022-07-23T12:40:36;93601.94;;;40.99;15.93
11806;BME280;5960;42.602;23.482;2022-07-23T12:43:05;93602.03;;;41.55;15.52
11806;BME280;5960;42.602;23.482;2022-07-23T12:45:47;93603.00;;;41.84;15.47
11806;BME280;5960;42.602;23.482;2022-07-23T12:48:18;93592.41;;;41.93;14.09
11806;BME280;5960;42.602;23.482;2022-07-23T12:50:53;93590.56;;;41.08;13.96
11806;BME280;5960;42.602;23.482;2022-07-23T12:53:22;93587.06;;;41.11;14.75
11806;BME280;5960;42.602;23.482;2022-07-23T12:55:50;93584.00;;;41.23;15.16
11806;BME280;5960;42.602;23.482;2022-07-23T12:58:18;93583.41;;;41.48;14.79
11806;BME280;5960;42.602;23.482;2022-07-23T13:00:57;93578.53;;;41.90;15.49
11806;BME280;5960;42.602;23.482;2022-07-23T13:03:27;93583.72;;;41.95;13.99
11806;BME280;5960;42.602;23.482;2022-07-23T13:05:57;93586.94;;;42.01;14.11
11806;BME280;5960;42.602;23.482;2022-07-23T13:08:24;93586.44;;;41.91;14.20
11806;BME280;5960;42.602;23.482;2022-07-23T13:10:51;93590.69;;;41.71;13.83
11806;BME280;5960;42.602;23.482;2022-07-23T13:13:23;93584.66;;;41.58;13.10